Time;durP1;ratioP1;P1;durP2;ratioP2;P2;SDS_P1;SDS_P2;PMS_P1;PMS_P2;Temp;Humidity;BMP_temperature;BMP_pressure;BME280_temperature;BME280_humidity;BME280_pressure;Samples;Min_cycle;Max_cycle;Signal;HPM_P1;HPM_P2
2021/01/27 00:03:55;;;;;;;1.70;0.93;;;10.00;64.00;;;;;;10278519;28;20038;-57
2021/01/27 00:08:55;;;;;;;1.75;0.80;;;9.90;64.00;;;;;;10278869;28;20134;-57
2021/01/27 00:13:56;;;;;;;2.63;0.90;;;9.90;64.00;;;;;;10279921;28;20154;-57
2021/01/27 00:18:57;;;;;;;1.33;0.90;;;10.00;64.00;;;;;;10275261;28;20033;-57
2021/01/27 00:23:57;;;;;;;1.73;0.80;;;9.90;63.90;;;;;;10261576;28;20067;-57
2021/01/27 00:28:58;;;;;;;2.17;0.90;;;10.00;64.00;;;;;;10290884;28;20107;-57
2021/01/27 00:33:59;;;;;;;2.08;0.70;;;9.90;64.00;;;;;;10292965;28;20027;-57
2021/01/27 00:38:59;;;;;;;1.40;0.93;;;10.00;64.00;;;;;;10285821;28;20031;-56
2021/01/27 00:44:00;;;;;;;1.27;0.88;;;9.90;64.00;;;;;;10282452;28;20027;-57
2021/01/27 00:49:02;;;;;;;1.70;0.93;;;9.90;63.90;;;;;;10277400;28;20014;-58
2021/01/27 00:54:03;;;;;;;1.58;0.88;;;10.00;64.00;;;;;;10274318;28;20023;-57
2021/01/27 00:59:04;;;;;;;1.98;1.27;;;10.00;64.00;;;;;;10270497;28;20031;-57
2021/01/27 01:04:06;;;;;;;1.95;1.20;;;9.90;63.90;;;;;;10292387;28;20093;-57
2021/01/27 01:09:06;;;;;;;1.98;1.05;;;9.90;63.90;;;;;;10273615;28;20170;-57
2021/01/27 01:14:07;;;;;;;1.65;0.90;;;9.90;63.90;;;;;;10265731;28;20488;-57
2021/01/27 01:19:09;;;;;;;1.45;1.00;;;9.90;63.90;;;;;;10271050;28;20086;-58
2021/01/27 01:24:10;;;;;;;1.00;0.70;;;9.90;63.90;;;;;;10279363;28;20046;-56
2021/01/27 01:29:11;;;;;;;1.50;0.88;;;9.90;63.90;;;;;;10291836;28;20031;-57
2021/01/27 01:34:11;;;;;;;1.67;1.00;;;9.90;63.90;;;;;;10280821;28;20109;-56
2021/01/27 01:39:12;;;;;;;1.63;0.93;;;9.90;63.90;;;;;;10274315;28;20118;-56
2021/01/27 01:44:13;;;;;;;1.50;0.90;;;9.90;63.90;;;;;;10275282;28;20167;-56
2021/01/27 01:49:14;;;;;;;1.23;0.70;;;9.90;63.90;;;;;;10263213;28;20035;-57
2021/01/27 01:54:42;;;;;;;2.22;1.00;;;9.90;63.90;;;;;;10257438;28;20074;-58
2021/01/27 02:00:08;;;;;;;1.90;1.08;;;9.90;63.90;;;;;;10278153;28;20498;-56
2021/01/27 02:05:22;;;;;;;2.33;1.13;;;9.90;63.90;;;;;;10297910;28;20503;-57
2021/01/27 02:10:23;;;;;;;1.88;0.90;;;9.90;63.90;;;;;;10277765;28;20492;-57
2021/01/27 02:16:16;;;;;;;1.95;1.20;;;9.90;63.90;;;;;;10266857;28;20384;-57
2021/01/27 02:21:47;;;;;;;1.85;1.20;;;9.80;63.80;;;;;;10258910;28;20045;-56
2021/01/27 02:27:07;;;;;;;2.35;1.05;;;9.90;63.90;;;;;;10259823;28;20031;-57
2021/01/27 02:32:38;;;;;;;1.95;0.95;;;9.90;63.90;;;;;;10287733;28;20031;-57
2021/01/27 02:38:10;;;;;;;1.88;0.70;;;9.80;64.40;;;;;;10281151;28;20038;-57
2021/01/27 02:43:27;;;;;;;2.42;1.33;;;9.80;63.80;;;;;;10275847;28;20075;-57
2021/01/27 02:48:53;;;;;;;1.77;1.25;;;9.90;63.90;;;;;;10281545;28;20388;-57
2021/01/27 02:54:14;;;;;;;1.38;0.90;;;9.80;63.80;;;;;;10284385;28;20039;-57
2021/01/27 02:59:46;;;;;;;2.15;0.90;;;9.80;63.80;;;;;;10255838;28;20391;-57
2021/01/27 03:05:05;;;;;;;2.30;1.27;;;9.80;63.80;;;;;;10275653;28;20018;-57
2021/01/27 03:10:15;;;;;;;1.80;1.13;;;9.80;63.80;;;;;;10301981;28;20475;-56
2021/01/27 03:15:16;;;;;;;2.10;0.73;;;9.80;63.80;;;;;;10279398;28;20459;-56
2021/01/27 03:20:46;;;;;;;1.73;1.00;;;9.80;63.80;;;;;;10274727;28;20041;-57
2021/01/27 03:26:01;;;;;;;1.33;0.73;;;9.80;63.80;;;;;;10259721;28;20484;-57
2021/01/27 03:31:02;;;;;;;2.28;1.08;;;9.80;63.80;;;;;;10256888;28;20058;-57
2021/01/27 03:36:06;;;;;;;1.58;0.98;;;9.80;63.80;;;;;;10278742;28;20105;-57
2021/01/27 03:41:21;;;;;;;1.88;1.05;;;9.80;63.70;;;;;;10263670;28;20042;-56
2021/01/27 03:47:06;;;;;;;1.30;0.95;;;9.80;63.70;;;;;;10275377;28;20043;-57
2021/01/27 03:52:24;;;;;;;1.50;1.15;;;9.80;63.70;;;;;;10282827;28;20554;-58
2021/01/27 03:57:36;;;;;;;1.77;0.95;;;9.80;63.70;;;;;;10289619;28;20034;-57
2021/01/27 04:02:36;;;;;;;1.63;0.80;;;9.80;63.70;;;;;;10275735;28;20038;-58
2021/01/27 04:07:37;;;;;;;1.83;0.88;;;9.80;63.70;;;;;;10277449;28;20507;-57
2021/01/27 04:12:38;;;;;;;2.05;0.93;;;9.80;63.70;;;;;;10292196;28;20109;-57
2021/01/27 04:17:39;;;;;;;1.83;1.02;;;9.70;63.70;;;;;;10261413;28;20065;-57
2021/01/27 04:22:39;;;;;;;2.15;0.95;;;9.80;63.70;;;;;;10274607;28;20379;-57
2021/01/27 04:27:40;;;;;;;2.33;1.10;;;9.80;63.70;;;;;;10288961;28;20102;-56
2021/01/27 04:32:41;;;;;;;2.13;1.08;;;9.70;63.60;;;;;;10284589;28;20061;-57
2021/01/27 04:37:42;;;;;;;1.98;1.10;;;9.80;63.70;;;;;;10281410;28;20031;-57
2021/01/27 04:42:43;;;;;;;1.60;1.00;;;9.80;63.70;;;;;;10270774;28;20028;-57
2021/01/27 04:48:11;;;;;;;1.50;0.90;;;9.70;63.60;;;;;;10265827;28;20106;-57
2021/01/27 04:53:43;;;;;;;1.50;0.90;;;9.80;63.70;;;;;;10279508;28;20035;-56
2021/01/27 04:59:11;;;;;;;1.55;1.00;;;9.70;63.60;;;;;;10287951;28;20045;-57
2021/01/27 05:04:18;;;;;;;1.08;0.80;;;9.80;63.60;;;;;;10289520;28;20035;-57
2021/01/27 05:09:43;;;;;;;1.95;0.88;;;9.70;63.60;;;;;;10285501;28;20468;-57
2021/01/27 05:14:46;;;;;;;1.77;0.85;;;9.70;63.60;;;;;;10277441;28;20034;-57
2021/01/27 05:19:49;;;;;;;1.83;1.05;;;9.70;63.60;;;;;;10301154;28;20102;-57
2021/01/27 05:24:49;;;;;;;1.27;0.73;;;9.70;63.60;;;;;;10281918;28;20114;-57
2021/01/27 05:30:01;;;;;;;2.10;0.82;;;9.70;63.60;;;;;;10283126;28;20391;-57
2021/01/27 05:35:30;;;;;;;1.65;1.00;;;9.70;63.60;;;;;;10292193;28;20491;-57
2021/01/27 05:40:34;;;;;;;1.25;0.65;;;9.70;63.60;;;;;;10276444;28;20036;-57
2021/01/27 05:45:44;;;;;;;1.67;1.10;;;9.70;63.60;;;;;;10272542;28;20559;-57
2021/01/27 05:50:45;;;;;;;1.45;0.70;;;9.70;63.60;;;;;;10257217;28;20032;-57
2021/01/27 05:56:08;;;;;;;1.38;1.10;;;9.70;63.60;;;;;;10288602;28;20042;-57
2021/01/27 06:01:44;;;;;;;1.25;0.73;;;9.70;63.50;;;;;;10285325;28;20086;-56
2021/01/27 06:06:47;;;;;;;2.42;1.05;;;9.70;63.50;;;;;;10295176;28;20049;-57
2021/01/27 06:12:00;;;;;;;2.05;0.90;;;9.70;63.50;;;;;;10284495;28;20067;-57
2021/01/27 06:17:24;;;;;;;1.10;0.73;;;9.70;63.50;;;;;;10276246;28;20479;-57
2021/01/27 06:23:11;;;;;;;1.08;0.70;;;9.70;63.50;;;;;;10267109;28;20431;-57
2021/01/27 06:28:32;;;;;;;1.88;1.30;;;9.70;63.50;;;;;;10275381;28;20047;-57
2021/01/27 06:33:54;;;;;;;2.47;0.85;;;9.60;63.50;;;;;;10276689;28;20387;-58
2021/01/27 06:39:58;;;;;;;2.20;0.95;;;9.70;63.60;;;;;;10289204;28;20392;-57
2021/01/27 06:45:29;;;;;;;2.75;0.93;;;9.60;63.50;;;;;;10243349;28;20043;-58
2021/01/27 06:50:53;;;;;;;;;;;9.70;63.60;;;;;;10292909;28;20042;-56
2021/01/27 06:56:40;;;;;;;1.20;0.75;;;9.70;63.60;;;;;;10284427;28;19961;-57
2021/01/27 07:02:39;;;;;;;1.60;1.00;;;9.60;63.50;;;;;;10262261;28;20038;-57
2021/01/27 07:08:07;;;;;;;2.55;0.82;;;9.60;63.60;;;;;;10270331;28;20047;-56
2021/01/27 07:13:34;;;;;;;1.38;0.73;;;9.60;63.50;;;;;;10276381;28;20038;-57
2021/01/27 07:19:16;;;;;;;1.48;0.77;;;9.60;63.50;;;;;;10277681;28;20126;-58
2021/01/27 07:24:27;;;;;;;1.83;0.95;;;9.60;63.50;;;;;;10284321;28;20038;-58
2021/01/27 07:30:06;;;;;;;1.13;0.68;;;9.60;63.50;;;;;;10278134;28;20031;-57
2021/01/27 07:35:14;;;;;;;1.00;0.63;;;9.60;63.50;;;;;;10274838;28;20089;-57
2021/01/27 07:40:44;;;;;;;1.65;0.80;;;9.60;63.50;;;;;;10272927;28;20423;-57
2021/01/27 07:45:54;;;;;;;1.65;0.63;;;9.60;63.50;;;;;;10296595;28;20039;-57
2021/01/27 07:51:20;;;;;;;1.65;0.85;;;9.60;63.50;;;;;;10290365;28;20058;-57
2021/01/27 07:56:33;;;;;;;1.63;0.90;;;9.60;63.50;;;;;;10280202;28;20031;-57
2021/01/27 08:01:58;;;;;;;1.50;0.98;;;9.60;63.50;;;;;;10280595;28;20073;-57
2021/01/27 08:06:59;;;;;;;1.63;1.20;;;9.60;63.50;;;;;;10283791;28;20066;-56
2021/01/27 08:12:40;;;;;;;1.83;0.90;;;9.60;63.50;;;;;;10264513;28;20036;-57
2021/01/27 08:17:43;;;;;;;0.80;0.60;;;9.60;63.50;;;;;;10279347;28;20476;-57
2021/01/27 08:22:48;;;;;;;2.28;0.90;;;9.60;63.50;;;;;;10293711;28;20076;-57
2021/01/27 08:28:44;;;;;;;0.93;0.82;;;9.60;63.50;;;;;;10284910;28;20027;-57
2021/01/27 08:33:47;;;;;;;0.93;0.63;;;9.60;63.40;;;;;;10275665;28;20083;-57
2021/01/27 08:38:57;;;;;;;1.02;0.65;;;9.60;63.50;;;;;;10278928;28;20082;-57
2021/01/27 08:43:58;;;;;;;1.83;0.82;;;9.60;63.50;;;;;;10269598;28;20039;-57
2021/01/27 08:49:00;;;;;;;1.80;0.90;;;9.50;63.50;;;;;;10271847;28;20029;-57
2021/01/27 08:54:26;;;;;;;1.42;0.75;;;9.60;63.50;;;;;;10282666;28;20082;-57
2021/01/27 08:59:28;;;;;;;0.70;0.50;;;9.50;63.50;;;;;;10290942;28;20042;-56
2021/01/27 09:04:36;;;;;;;0.98;0.80;;;9.60;63.50;;;;;;10291588;28;20400;-57
2021/01/27 09:09:39;;;;;;;0.95;0.60;;;9.50;63.50;;;;;;10279160;28;20051;-56
2021/01/27 09:14:52;;;;;;;0.85;0.63;;;9.60;63.50;;;;;;10287686;28;20490;-57
2021/01/27 09:19:56;;;;;;;0.80;0.60;;;9.60;63.50;;;;;;10268203;28;20059;-57
2021/01/27 09:24:57;;;;;;;1.08;0.68;;;9.50;63.50;;;;;;10283410;28;20556;-57
2021/01/27 09:30:13;;;;;;;1.33;0.73;;;9.50;63.50;;;;;;10288757;28;20494;-58
2021/01/27 09:35:22;;;;;;;0.82;0.60;;;9.50;63.50;;;;;;10291083;28;20054;-57
2021/01/27 09:40:35;;;;;;;1.57;0.67;;;9.50;63.50;;;;;;10288006;28;20445;-58
2021/01/27 09:45:39;;;;;;;1.27;0.70;;;9.50;63.90;;;;;;10281480;28;20027;-58
2021/01/27 09:50:45;;;;;;;1.13;0.80;;;9.50;63.60;;;;;;10274165;28;20027;-57
2021/01/27 09:55:46;;;;;;;1.52;0.80;;;9.50;63.60;;;;;;10282257;28;20043;-58
2021/01/27 10:00:49;;;;;;;1.20;0.70;;;9.50;63.60;;;;;;10260999;28;20045;-57
2021/01/27 10:05:52;;;;;;;1.10;0.70;;;9.50;63.60;;;;;;10255699;28;20098;-57
2021/01/27 10:11:25;;;;;;;0.85;0.50;;;9.50;63.60;;;;;;10286354;28;20027;-58
2021/01/27 10:16:26;;;;;;;1.23;0.60;;;9.50;63.60;;;;;;10286278;28;20090;-58
2021/01/27 10:21:27;;;;;;;1.05;0.73;;;9.50;63.70;;;;;;10287200;28;20421;-58
2021/01/27 10:26:36;;;;;;;0.70;0.40;;;9.50;63.60;;;;;;10272121;28;20043;-58
2021/01/27 10:31:38;;;;;;;1.85;1.05;;;9.50;64.20;;;;;;10285780;28;20059;-57
2021/01/27 10:36:39;;;;;;;0.77;0.55;;;9.50;63.70;;;;;;10287183;28;20128;-57
2021/01/27 10:41:40;;;;;;;1.05;0.43;;;9.50;63.70;;;;;;10281755;28;20034;-58
2021/01/27 10:46:40;;;;;;;0.60;0.43;;;9.50;63.60;;;;;;10285381;28;20102;-57
2021/01/27 10:51:43;;;;;;;1.30;0.52;;;9.50;63.70;;;;;;10283198;28;20026;-58
2021/01/27 10:56:44;;;;;;;1.75;0.70;;;9.50;63.70;;;;;;10263674;28;20150;-56
2021/01/27 11:01:44;;;;;;;1.38;0.60;;;9.50;63.70;;;;;;10258687;28;20026;-57
2021/01/27 11:06:45;;;;;;;1.17;0.75;;;9.50;63.70;;;;;;10255222;28;20117;-57
2021/01/27 11:11:46;;;;;;;1.40;0.70;;;9.50;63.70;;;;;;10286534;28;20077;-58
2021/01/27 11:16:47;;;;;;;1.70;0.98;;;9.50;63.70;;;;;;10280766;28;20054;-58
2021/01/27 11:21:48;;;;;;;1.70;0.73;;;9.50;63.70;;;;;;10278872;28;20478;-58
2021/01/27 11:26:48;;;;;;;1.02;0.50;;;9.50;63.70;;;;;;10274846;28;20543;-58
2021/01/27 11:31:49;;;;;;;0.98;0.47;;;9.50;63.70;;;;;;10275333;28;20031;-57
2021/01/27 11:36:50;;;;;;;1.35;0.57;;;9.50;63.80;;;;;;10286070;28;20515;-57
2021/01/27 11:41:51;;;;;;;0.95;0.70;;;9.50;63.70;;;;;;10298649;28;20523;-57
2021/01/27 11:46:51;;;;;;;0.68;0.47;;;9.50;63.80;;;;;;10279181;28;20074;-57
2021/01/27 11:51:54;;;;;;;0.90;0.60;;;9.40;63.70;;;;;;10268647;28;20476;-57
2021/01/27 11:56:55;;;;;;;1.10;0.70;;;9.50;63.70;;;;;;10262408;28;20118;-56
2021/01/27 12:01:55;;;;;;;1.42;0.70;;;9.50;63.70;;;;;;10257010;28;20111;-58
2021/01/27 12:06:56;;;;;;;0.95;0.75;;;9.40;63.70;;;;;;10256162;28;20170;-57
2021/01/27 12:11:57;;;;;;;0.90;0.55;;;9.40;63.70;;;;;;10285281;28;20015;-58
2021/01/27 12:16:59;;;;;;;1.85;1.00;;;9.50;63.80;;;;;;10278763;28;20025;-57
2021/01/27 12:22:00;;;;;;;0.63;0.47;;;9.40;63.80;;;;;;10272988;28;20074;-58
2021/01/27 12:27:00;;;;;;;1.15;0.55;;;9.40;63.80;;;;;;10265793;28;20491;-57
2021/01/27 12:32:01;;;;;;;1.50;0.90;;;9.40;63.80;;;;;;10281366;28;20027;-58
2021/01/27 12:37:02;;;;;;;1.05;0.60;;;9.40;63.80;;;;;;10277790;28;20109;-58
2021/01/27 12:42:03;;;;;;;0.68;0.63;;;9.50;63.90;;;;;;10288908;28;20022;-58
2021/01/27 12:47:03;;;;;;;1.60;0.70;;;9.40;63.80;;;;;;10284464;28;20404;-58
2021/01/27 12:52:05;;;;;;;0.77;0.50;;;9.50;63.90;;;;;;10275098;28;20018;-58
2021/01/27 12:57:06;;;;;;;0.95;0.60;;;9.40;63.80;;;;;;10268871;28;20110;-57
2021/01/27 13:02:07;;;;;;;0.90;0.57;;;9.40;63.80;;;;;;10277277;28;20098;-57
2021/01/27 13:07:07;;;;;;;2.17;0.77;;;9.40;63.80;;;;;;10270483;28;20093;-57
2021/01/27 13:12:08;;;;;;;1.00;0.60;;;9.40;63.80;;;;;;10306269;28;20098;-58
2021/01/27 13:17:09;;;;;;;1.08;0.75;;;9.40;63.90;;;;;;10285470;28;20447;-58
2021/01/27 13:22:09;;;;;;;2.17;0.88;;;9.40;63.90;;;;;;10278187;28;20559;-58
2021/01/27 13:27:10;;;;;;;1.15;0.68;;;9.40;63.90;;;;;;10270567;28;20106;-58
2021/01/27 13:32:11;;;;;;;1.48;0.75;;;9.40;63.90;;;;;;10281413;28;20038;-57
2021/01/27 13:37:15;;;;;;;1.08;0.70;;;9.40;63.90;;;;;;10288823;28;20051;-57
2021/01/27 13:42:16;;;;;;;1.23;0.70;;;9.40;63.90;;;;;;10283420;28;20038;-57
2021/01/27 13:47:17;;;;;;;1.30;0.70;;;9.40;63.90;;;;;;10277205;28;20487;-57
2021/01/27 13:52:18;;;;;;;1.25;0.60;;;9.40;64.00;;;;;;10272268;28;20058;-57
2021/01/27 13:57:19;;;;;;;1.80;0.95;;;9.40;63.90;;;;;;10266403;28;20034;-57
2021/01/27 14:02:19;;;;;;;1.10;0.70;;;9.40;63.90;;;;;;10260668;28;20039;-57
2021/01/27 14:07:20;;;;;;;1.60;0.98;;;9.40;64.00;;;;;;10290576;28;20039;-57
2021/01/27 14:12:21;;;;;;;0.82;0.65;;;9.40;64.00;;;;;;10289162;28;20145;-57
2021/01/27 14:17:22;;;;;;;1.27;0.65;;;9.40;64.00;;;;;;10283340;28;20113;-57
2021/01/27 14:22:23;;;;;;;1.35;0.93;;;9.40;64.00;;;;;;10286171;28;20130;-57
2021/01/27 14:27:23;;;;;;;1.27;1.00;;;9.40;64.00;;;;;;10266906;28;20031;-57
2021/01/27 14:32:24;;;;;;;1.38;0.95;;;9.40;64.60;;;;;;10278643;28;20027;-58
2021/01/27 14:37:25;;;;;;;1.58;0.85;;;9.40;64.10;;;;;;10286161;28;20023;-57
2021/01/27 14:42:27;;;;;;;1.63;0.93;;;9.40;64.00;;;;;;10280981;28;20036;-57
2021/01/27 14:47:28;;;;;;;0.93;0.68;;;9.40;64.00;;;;;;10274308;28;20118;-57
2021/01/27 14:52:29;;;;;;;1.27;0.75;;;9.40;64.00;;;;;;10285465;28;20122;-57
2021/01/27 14:57:30;;;;;;;1.50;0.80;;;9.40;64.00;;;;;;10260378;28;20035;-57
2021/01/27 15:02:30;;;;;;;1.27;0.70;;;9.40;64.00;;;;;;10257242;28;20027;-57
2021/01/27 15:07:31;;;;;;;1.33;0.98;;;9.40;64.00;;;;;;10273805;28;20075;-57
2021/01/27 15:12:32;;;;;;;1.73;0.82;;;9.40;64.00;;;;;;10285485;28;20027;-57
2021/01/27 15:17:33;;;;;;;1.60;1.02;;;9.40;64.00;;;;;;10286317;28;20114;-57
2021/01/27 15:22:33;;;;;;;1.67;1.02;;;9.40;64.10;;;;;;10284450;28;20035;-57
2021/01/27 15:27:34;;;;;;;1.75;1.00;;;9.40;64.10;;;;;;10264631;28;20023;-57
2021/01/27 15:32:35;;;;;;;1.58;0.80;;;9.40;64.00;;;;;;10278586;28;20031;-57
2021/01/27 15:37:35;;;;;;;0.75;0.65;;;9.40;64.10;;;;;;10283652;28;20086;-57
2021/01/27 15:42:36;;;;;;;1.13;0.80;;;9.40;64.10;;;;;;10276924;28;20115;-58
2021/01/27 15:47:40;;;;;;;2.25;0.90;;;9.40;64.10;;;;;;10266049;28;20027;-57
2021/01/27 15:52:40;;;;;;;2.35;0.80;;;9.40;64.10;;;;;;10268259;28;20038;-57
2021/01/27 15:57:41;;;;;;;1.83;1.15;;;9.40;64.10;;;;;;10263923;28;20073;-57
2021/01/27 16:02:43;;;;;;;1.95;0.90;;;9.40;64.10;;;;;;10286420;28;20027;-57
2021/01/27 16:07:44;;;;;;;1.30;0.70;;;9.40;64.10;;;;;;10284704;28;20426;-57
2021/01/27 16:12:44;;;;;;;1.02;0.68;;;9.40;64.10;;;;;;10295255;28;20169;-58
2021/01/27 16:17:45;;;;;;;1.05;0.77;;;9.40;64.10;;;;;;10287982;28;20088;-58
2021/01/27 16:22:48;;;;;;;1.48;0.90;;;9.30;64.00;;;;;;10281157;28;20030;-58
2021/01/27 16:27:49;;;;;;;1.23;0.73;;;9.30;64.00;;;;;;10271038;28;20019;-57
2021/01/27 16:32:51;;;;;;;1.58;0.88;;;9.40;64.10;;;;;;10286130;28;20030;-58
2021/01/27 16:37:52;;;;;;;2.65;1.00;;;9.40;64.10;;;;;;10288033;28;20023;-57
2021/01/27 16:42:55;;;;;;;1.38;0.90;;;9.30;64.00;;;;;;10286613;28;20503;-57
2021/01/27 16:47:56;;;;;;;2.35;1.20;;;9.30;64.00;;;;;;10282136;28;20031;-58
2021/01/27 16:52:58;;;;;;;1.30;0.90;;;9.30;64.10;;;;;;10277825;28;20058;-57
2021/01/27 16:57:59;;;;;;;1.33;0.70;;;9.30;64.10;;;;;;10273615;28;20034;-57
2021/01/27 17:03:00;;;;;;;2.45;1.10;;;9.30;64.10;;;;;;10272046;28;20062;-57
2021/01/27 17:08:02;;;;;;;1.23;0.80;;;9.30;64.10;;;;;;10281141;28;20053;-57
2021/01/27 17:13:06;;;;;;;1.95;1.20;;;9.30;64.10;;;;;;10286342;28;20616;-58
2021/01/27 17:18:08;;;;;;;1.77;1.10;;;9.30;64.10;;;;;;10280831;28;20023;-57
2021/01/27 17:23:08;;;;;;;1.08;0.75;;;9.40;64.10;;;;;;10287023;28;20077;-58
2021/01/27 17:28:09;;;;;;;1.58;1.00;;;9.30;64.10;;;;;;10271724;28;20029;-57
2021/01/27 17:33:11;;;;;;;3.42;1.30;;;9.30;64.10;;;;;;10307711;28;20030;-58
2021/01/27 17:38:11;;;;;;;0.93;0.73;;;9.30;64.10;;;;;;10301336;28;20034;-57
2021/01/27 17:43:13;;;;;;;1.45;0.90;;;9.30;64.10;;;;;;10299634;28;20427;-58
2021/01/27 17:48:14;;;;;;;1.73;1.13;;;9.30;64.10;;;;;;10275114;28;20026;-58
2021/01/27 17:53:14;;;;;;;1.85;1.10;;;9.30;64.10;;;;;;10277282;28;20109;-56
2021/01/27 17:58:15;;;;;;;1.80;0.90;;;9.30;64.10;;;;;;10262229;28;20118;-57
2021/01/27 18:03:16;;;;;;;1.25;0.80;;;9.30;64.10;;;;;;10267482;28;20043;-57
2021/01/27 18:08:18;;;;;;;2.65;1.00;;;9.30;64.10;;;;;;10280155;28;20055;-57
2021/01/27 18:13:21;;;;;;;1.30;0.98;;;9.30;64.10;;;;;;10285784;28;20023;-57
2021/01/27 18:18:25;;;;;;;1.17;0.88;;;9.30;64.10;;;;;;10280221;28;20086;-57
2021/01/27 18:23:26;;;;;;;1.77;0.98;;;9.30;64.10;;;;;;10278200;28;20031;-58
2021/01/27 18:28:29;;;;;;;1.83;1.10;;;9.30;64.10;;;;;;10273943;28;20031;-57
2021/01/27 18:33:30;;;;;;;1.65;0.90;;;9.30;64.10;;;;;;10286877;28;20495;-58
2021/01/27 18:38:32;;;;;;;1.70;0.90;;;9.30;64.20;;;;;;10299807;28;20050;-58
2021/01/27 18:43:33;;;;;;;2.45;1.23;;;9.30;64.10;;;;;;10286478;28;20049;-58
2021/01/27 18:48:34;;;;;;;1.73;1.30;;;9.30;64.10;;;;;;10272184;28;20027;-58
2021/01/27 18:53:35;;;;;;;1.70;0.90;;;9.30;64.10;;;;;;10274091;28;20518;-58
2021/01/27 18:58:36;;;;;;;2.03;1.20;;;9.30;64.10;;;;;;10269884;28;20424;-58
2021/01/27 19:03:37;;;;;;;1.67;1.02;;;9.30;64.10;;;;;;10276606;28;20114;-57
2021/01/27 19:08:38;;;;;;;1.88;1.00;;;9.30;64.10;;;;;;10280470;28;20499;-58
2021/01/27 19:13:39;;;;;;;1.63;1.02;;;9.30;64.20;;;;;;10281973;28;20106;-56
2021/01/27 19:18:40;;;;;;;1.40;1.00;;;9.30;64.10;;;;;;10279676;28;20030;-57
2021/01/27 19:23:40;;;;;;;1.45;0.90;;;9.30;64.10;;;;;;10270501;28;20493;-57
2021/01/27 19:28:41;;;;;;;2.35;1.20;;;9.30;64.10;;;;;;10259970;28;20114;-58
2021/01/27 19:33:42;;;;;;;2.00;1.40;;;9.30;64.20;;;;;;10289725;28;20149;-58
2021/01/27 19:38:43;;;;;;;1.60;1.00;;;9.30;64.70;;;;;;10290098;28;20503;-56
2021/01/27 19:43:44;;;;;;;1.30;1.00;;;9.30;64.10;;;;;;10288049;28;20035;-56
2021/01/27 19:48:44;;;;;;;2.15;1.10;;;9.30;64.10;;;;;;10278278;28;20031;-57
2021/01/27 19:53:46;;;;;;;1.75;1.23;;;9.30;64.10;;;;;;10272618;28;20031;-56
2021/01/27 19:58:47;;;;;;;2.03;1.30;;;9.30;64.10;;;;;;10266588;28;20024;-56
2021/01/27 20:03:48;;;;;;;2.03;1.30;;;9.30;64.10;;;;;;10275775;28;20126;-57
2021/01/27 20:08:48;;;;;;;2.38;1.35;;;9.30;64.20;;;;;;10287744;28;20042;-57
2021/01/27 20:13:49;;;;;;;1.70;1.27;;;9.30;64.10;;;;;;10288782;28;20117;-57
2021/01/27 20:18:50;;;;;;;2.28;1.20;;;9.30;64.10;;;;;;10283690;28;20460;-56
2021/01/27 20:23:51;;;;;;;2.88;1.20;;;9.30;64.10;;;;;;10277136;28;20086;-57
2021/01/27 20:28:52;;;;;;;1.83;1.10;;;9.30;64.20;;;;;;10265625;28;20107;-58
2021/01/27 20:33:53;;;;;;;1.48;1.17;;;9.30;64.10;;;;;;10293663;28;20106;-57
2021/01/27 20:38:54;;;;;;;2.45;1.50;;;9.30;64.10;;;;;;10287167;28;20058;-57
2021/01/27 20:43:56;;;;;;;1.65;1.08;;;9.30;64.10;;;;;;10280789;28;20515;-57
2021/01/27 20:48:57;;;;;;;2.90;1.60;;;9.30;64.10;;;;;;10277287;28;20072;-57
2021/01/27 20:53:58;;;;;;;2.08;1.25;;;9.30;64.20;;;;;;10271515;28;20064;-57
2021/01/27 20:58:58;;;;;;;2.33;1.30;;;9.30;64.20;;;;;;10280480;28;20384;-57
2021/01/27 21:03:59;;;;;;;2.63;1.38;;;9.20;64.20;;;;;;10259642;28;20110;-56
2021/01/27 21:09:00;;;;;;;2.33;1.20;;;9.30;64.20;;;;;;10275551;28;20035;-57
2021/01/27 21:14:00;;;;;;;2.38;1.42;;;9.30;64.20;;;;;;10288211;28;20068;-57
2021/01/27 21:19:01;;;;;;;1.58;1.10;;;9.30;64.20;;;;;;10273544;28;20030;-57
2021/01/27 21:24:02;;;;;;;2.72;1.30;;;9.30;64.30;;;;;;10287672;28;20030;-57
2021/01/27 21:29:04;;;;;;;2.50;1.30;;;9.30;64.50;;;;;;10278114;28;20031;-57
2021/01/27 21:34:04;;;;;;;2.33;1.52;;;9.30;64.20;;;;;;10291679;28;20027;-57
2021/01/27 21:39:05;;;;;;;2.95;1.48;;;9.30;64.20;;;;;;10289720;28;20118;-57
2021/01/27 21:44:06;;;;;;;2.05;1.48;;;9.30;64.20;;;;;;10281455;28;20046;-57
2021/01/27 21:49:07;;;;;;;2.45;1.58;;;9.30;64.20;;;;;;10283159;28;20114;-57
2021/01/27 21:54:08;;;;;;;5.03;1.58;;;9.30;64.20;;;;;;10279297;28;20043;-58
2021/01/27 21:59:08;;;;;;;2.35;1.20;;;9.30;64.20;;;;;;10264895;28;20038;-57
2021/01/27 22:04:09;;;;;;;3.38;1.92;;;9.30;64.20;;;;;;10258618;28;20054;-57
2021/01/27 22:09:10;;;;;;;2.20;1.30;;;9.30;64.30;;;;;;10287092;28;20114;-57
2021/01/27 22:14:10;;;;;;;2.63;1.60;;;9.30;64.80;;;;;;10287108;28;20118;-57
2021/01/27 22:19:11;;;;;;;2.33;1.23;;;9.30;64.20;;;;;;10281553;28;20109;-57
2021/01/27 22:24:12;;;;;;;3.85;1.95;;;9.30;64.20;;;;;;10291895;28;20037;-57
2021/01/27 22:29:13;;;;;;;3.22;1.67;;;9.20;64.20;;;;;;10262110;28;20031;-57
2021/01/27 22:34:17;;;;;;;2.83;1.90;;;9.30;64.20;;;;;;10287962;28;20114;-57
2021/01/27 22:39:18;;;;;;;3.78;2.03;;;9.30;64.30;;;;;;10282908;28;20039;-57
2021/01/27 22:44:19;;;;;;;3.88;2.05;;;9.30;64.20;;;;;;10280528;28;20074;-58
2021/01/27 22:49:20;;;;;;;4.47;1.92;;;9.30;64.20;;;;;;10277603;28;20084;-58
2021/01/27 22:54:22;;;;;;;3.28;1.88;;;9.30;64.20;;;;;;10267249;28;20031;-57
2021/01/27 22:59:22;;;;;;;2.25;1.67;;;9.30;64.30;;;;;;10261052;28;20024;-57
2021/01/27 23:04:23;;;;;;;2.88;1.65;;;9.30;64.20;;;;;;10278422;28;20031;-57
2021/01/27 23:09:24;;;;;;;3.63;2.22;;;9.30;64.20;;;;;;10271311;28;20039;-57
2021/01/27 23:14:25;;;;;;;3.67;1.95;;;9.30;64.20;;;;;;10284206;28;20031;-57
2021/01/27 23:19:26;;;;;;;3.17;2.25;;;9.30;64.20;;;;;;10276929;28;20101;-57
2021/01/27 23:24:30;;;;;;;2.58;1.55;;;9.20;64.20;;;;;;10276032;28;20094;-56
2021/01/27 23:29:30;;;;;;;2.42;1.40;;;9.30;64.20;;;;;;10262134;28;20058;-57
2021/01/27 23:34:31;;;;;;;3.63;1.90;;;9.30;64.20;;;;;;10287010;28;20034;-57
2021/01/27 23:39:32;;;;;;;1.90;1.40;;;9.20;64.20;;;;;;10281464;28;20038;-57
2021/01/27 23:44:32;;;;;;;3.88;1.98;;;9.30;64.20;;;;;;10278637;28;20116;-58
2021/01/27 23:49:33;;;;;;;2.58;1.30;;;9.20;64.20;;;;;;10269026;28;20073;-57
2021/01/27 23:54:34;;;;;;;2.58;1.35;;;9.30;64.20;;;;;;10264043;28;20019;-57
2021/01/27 23:59:34;;;;;;;3.45;2.03;;;9.30;64.20;;;;;;10258920;28;20069;-57
